CheckWX is a tool to help pilots better visualize weather data.  It is not intended as a substitute for an official pre-flight weather briefing.

18:18:33 UTC

KRCM METAR
Skyhaven Airport
Warrensburg, Missouri, USA
Current

20 hours ago

KRCM 232155Z AUTO 01008KT 10SM SCT120 13/09 A3001 RMK AO2
Observed
Apr-23 @ 21:55 UTC
Wind
  • 010° at 8 KTS
Visibility
10 SM
Flight Rules
VFR
Cloud Levels
  • Scattered at 12,000' AGL
Temperature
13°C / 55°F
Dewpoint
C / 48°F
Humidity
77%
Altimeter
30.01" Hg
Pressure
1016.22 hPa